KCBM/CBM METAR and TAF weather

Enter ICAO airport designator
Station Type Date Time Source
KCBM METAR 2019/04/26 03:21 UTC NOAA

KCBM 260321Z AUTO 20006KT 10SM OVC005 17/17 A2980 RMK AO2 SLP093 $


Station Type Date Time Source
KCBM Decoded METAR 2019/04/26 03:21 UTC NOAA

Columbus Air Force Base, MS, United States (KCBM) 33-39N 088-27W
Apr 25, 2019 - 11:21 PM EDT / 2019.04.26 0321 UTC
Wind: from the SSW (200 degrees) at 7 MPH (6 KT):0
Visibility: 10 mile(s):0
Sky conditions: overcast
Temperature: 62 F (17 C)
Dew Point: 62 F (17 C)
Relative Humidity: 100%
Pressure (altimeter): 29.8 in. Hg (1009 hPa)
ob: KCBM 260321Z AUTO 20006KT 10SM OVC005 17/17 A2980 RMK AO2 SLP093
cycle: 3

Station Type Date Time Source
KCBM TAF 2019/04/25 23:19 UTC NOAA

TAF
AMD KCBM 252315Z 2523/2623 20012KT 8000 -SHRA VCTS SCT010 OVC020CB QNH2966INS
BECMG 2604/2605 26009KT 9999 NSW OVC010 QNH2974INS
BECMG 2613/2614 31015G25KT 9999 FEW010 SCT030 QNH2988INS
BECMG 2619/2620 35012G20KT 9999 SKC QNH2996INS TX23/2523Z TN14/2611Z LAST NO
AMDS AFT 2600 NEXT 2605

Example: see airport list